createdAt,value
2019-03-02T00:05:05.811Z,74.24
2019-03-02T00:11:10.447Z,74.72
2019-03-02T00:17:15.507Z,75.02
2019-03-02T00:23:21.536Z,76.40
2019-03-02T00:29:26.099Z,76.67
2019-03-02T00:35:30.809Z,77.66
2019-03-02T00:41:38.788Z,79.22
2019-03-02T00:47:42.182Z,79.62
2019-03-02T00:53:46.803Z,79.16
2019-03-02T00:59:51.506Z,79.50
2019-03-02T01:05:56.186Z,79.61
2019-03-02T01:12:01.602Z,79.10
2019-03-02T01:18:06.815Z,76.94
2019-03-02T01:24:12.140Z,78.84
2019-03-02T01:30:19.862Z,79.29
2019-03-02T01:36:24.428Z,78.73
2019-03-02T01:42:29.685Z,79.96
2019-03-02T01:48:35.448Z,79.20
2019-03-02T01:54:40.079Z,79.34
2019-03-02T02:00:45.708Z,79.39
2019-03-02T02:06:51.330Z,78.83
2019-03-02T02:12:55.964Z,78.54
2019-03-02T02:19:02.477Z,78.48
2019-03-02T02:25:13.652Z,78.68
2019-03-02T02:31:18.290Z,78.15
2019-03-02T02:37:22.834Z,78.47
2019-03-02T02:43:27.440Z,78.81
2019-03-02T02:49:32.200Z,79.15
2019-03-02T02:55:40.795Z,79.54
2019-03-02T03:01:43.331Z,79.73
2019-03-02T03:07:53.522Z,80.32
2019-03-02T03:13:55.151Z,81.38
2019-03-02T03:20:05.371Z,82.29
2019-03-02T03:26:07.406Z,83.44
2019-03-02T03:32:12.506Z,83.71
2019-03-02T03:38:17.351Z,85.13
2019-03-02T03:44:26.411Z,85.52
2019-03-02T03:50:28.408Z,86.12
2019-03-02T03:56:33.169Z,86.22
2019-03-02T04:02:37.787Z,86.75
2019-03-02T04:08:42.363Z,87.10
2019-03-02T04:14:46.999Z,87.03
2019-03-02T04:20:51.737Z,87.40
2019-03-02T04:26:56.338Z,87.33
2019-03-02T04:33:01.925Z,87.58
2019-03-02T04:39:09.488Z,87.77
2019-03-02T04:45:14.489Z,87.55
2019-03-02T04:51:19.072Z,87.50
2019-03-02T04:57:24.149Z,87.53
2019-03-02T05:03:29.593Z,87.34
2019-03-02T05:09:34.227Z,87.79
2019-03-02T05:15:38.932Z,87.85
2019-03-02T05:21:44.395Z,87.61
2019-03-02T05:27:49.217Z,87.90
2019-03-02T05:33:53.787Z,87.86
2019-03-02T05:39:59.199Z,87.92
2019-03-02T05:46:04.309Z,87.93
2019-03-02T05:52:09.031Z,87.83
2019-03-02T05:58:15.833Z,88.09
2019-03-02T06:04:22.009Z,87.71
2019-03-02T06:10:26.528Z,87.72
2019-03-02T06:16:31.612Z,88.98
2019-03-02T06:22:36.236Z,89.65
2019-03-02T06:28:40.858Z,89.42
2019-03-02T06:34:45.526Z,89.58
2019-03-02T06:40:50.083Z,89.79
2019-03-02T06:46:58.096Z,89.51
2019-03-02T06:53:01.746Z,89.37
2019-03-02T06:59:07.126Z,88.84
2019-03-02T07:05:11.776Z,88.67
2019-03-02T07:11:16.410Z,88.94
2019-03-02T07:17:22.692Z,88.75
2019-03-02T07:23:28.765Z,87.46
2019-03-02T07:29:33.462Z,88.42
2019-03-02T07:35:38.057Z,88.73
2019-03-02T07:41:42.604Z,88.54
2019-03-02T07:47:47.235Z,87.75
2019-03-02T07:53:51.789Z,86.77
2019-03-02T07:59:56.559Z,86.76
2019-03-02T08:06:01.711Z,86.10
2019-03-02T08:12:06.412Z,85.26
2019-03-02T08:18:10.965Z,84.15
2019-03-02T08:24:15.584Z,83.64
2019-03-02T08:30:22.559Z,82.68
2019-03-02T08:36:28.251Z,81.14
2019-03-02T08:42:33.316Z,80.70
2019-03-02T08:48:37.938Z,81.16
2019-03-02T08:54:42.594Z,79.93
2019-03-02T09:00:47.221Z,81.67
2019-03-02T09:06:51.823Z,82.20
2019-03-02T09:12:58.691Z,81.76
2019-03-02T09:19:02.776Z,81.87
2019-03-02T09:25:11.923Z,81.55
2019-03-02T09:31:25.648Z,81.08
2019-03-02T09:37:23.196Z,82.50
2019-03-02T09:43:27.926Z,82.65
2019-03-02T09:49:33.871Z,83.06
2019-03-02T09:55:39.094Z,82.22
2019-03-02T10:01:43.669Z,82.58
2019-03-02T10:07:48.393Z,82.71
2019-03-02T10:13:53.629Z,82.64
2019-03-02T10:20:00.995Z,82.63
2019-03-02T10:26:07.301Z,82.28
2019-03-02T10:32:12.378Z,83.23
2019-03-02T10:38:18.979Z,84.58
2019-03-02T10:44:23.506Z,84.15
2019-03-02T10:50:31.761Z,85.18
2019-03-02T10:56:36.544Z,85.03
2019-03-02T11:02:41.490Z,86.12
2019-03-02T11:09:04.327Z,87.37
2019-03-02T11:15:11.550Z,87.46
2019-03-02T11:21:16.079Z,86.68
2019-03-02T11:27:22.360Z,85.49
2019-03-02T11:33:32.244Z,83.50
2019-03-02T11:39:36.948Z,82.80
2019-03-02T11:45:49.106Z,81.47
2019-03-02T11:51:58.704Z,81.83
2019-03-02T11:58:22.386Z,75.97
2019-03-02T12:04:31.405Z,74.70
2019-03-02T12:10:40.537Z,71.13
2019-03-02T12:16:45.094Z,68.86
2019-03-02T12:23:02.977Z,69.74
2019-03-02T12:29:18.025Z,70.58
2019-03-02T12:35:27.526Z,72.54
2019-03-02T12:41:38.184Z,73.08
2019-03-02T12:48:00.684Z,74.68
2019-03-02T12:54:08.158Z,75.98
2019-03-02T13:00:32.970Z,73.87
2019-03-02T13:06:55.353Z,74.92
2019-03-02T13:13:01.852Z,74.99
2019-03-02T13:19:06.515Z,74.37
2019-03-02T13:25:21.785Z,73.38
2019-03-02T13:31:33.762Z,73.19
2019-03-02T13:37:53.005Z,72.09
2019-03-02T13:44:06.022Z,72.15
2019-03-02T13:50:15.368Z,73.21
2019-03-02T13:56:30.551Z,73.84
2019-03-02T14:02:55.074Z,74.02
2019-03-02T14:09:01.275Z,74.58
2019-03-02T14:15:08.325Z,74.72
2019-03-02T14:21:15.894Z,74.70
2019-03-02T14:27:29.552Z,73.70
2019-03-02T14:33:50.654Z,73.75
2019-03-02T14:39:57.051Z,72.92
2019-03-02T14:46:14.166Z,73.78
2019-03-02T14:52:33.273Z,74.22
2019-03-02T14:58:39.632Z,74.75
2019-03-02T15:04:56.625Z,74.98
2019-03-02T15:11:03.659Z,75.03
2019-03-02T15:17:19.779Z,74.51
2019-03-02T15:23:39.729Z,74.09
2019-03-02T15:29:58.059Z,73.68
2019-03-02T15:36:11.138Z,73.72
2019-03-02T15:42:21.306Z,73.70
2019-03-02T15:48:27.265Z,74.42
2019-03-02T15:54:34.535Z,74.54
2019-03-02T16:00:55.665Z,75.67
2019-03-02T16:07:10.958Z,74.78
2019-03-02T16:13:33.402Z,74.94
2019-03-02T16:19:39.645Z,75.25
2019-03-02T16:25:45.984Z,74.17
2019-03-02T16:31:50.559Z,74.50
2019-03-02T16:37:56.923Z,75.20
2019-03-02T16:44:12.715Z,75.97
2019-03-02T16:50:19.389Z,76.28
2019-03-02T16:56:29.859Z,77.67
2019-03-02T17:02:40.220Z,78.37
2019-03-02T17:08:52.191Z,78.36
2019-03-02T17:15:12.048Z,79.01
2019-03-02T17:21:20.563Z,79.08
2019-03-02T17:27:32.450Z,79.62
2019-03-02T17:33:41.683Z,80.67
2019-03-02T17:39:55.230Z,80.84
2019-03-02T17:46:14.243Z,81.94
2019-03-02T17:52:25.642Z,82.10
2019-03-02T17:58:42.655Z,83.13
2019-03-02T18:04:51.928Z,83.47
2019-03-02T18:11:14.877Z,85.31
2019-03-02T18:17:23.721Z,85.77
2019-03-02T18:23:28.479Z,86.17
2019-03-02T18:29:33.320Z,85.85
2019-03-02T18:35:39.048Z,85.45
2019-03-02T18:41:43.907Z,85.97
2019-03-02T18:47:48.464Z,85.02
2019-03-02T18:53:54.675Z,85.39
2019-03-02T19:00:00.377Z,84.80
2019-03-02T19:06:05.514Z,84.28
2019-03-02T19:12:10.249Z,84.03
2019-03-02T19:18:14.956Z,83.79
2019-03-02T19:24:19.532Z,83.55
2019-03-02T19:30:24.237Z,84.15
2019-03-02T19:36:28.911Z,83.85
2019-03-02T19:42:33.608Z,83.68
2019-03-02T19:48:38.181Z,84.08
2019-03-02T19:54:42.734Z,83.30
2019-03-02T20:00:47.295Z,84.07
2019-03-02T20:06:51.953Z,84.41
2019-03-02T20:12:56.643Z,83.57
2019-03-02T20:19:02.224Z,83.96
2019-03-02T20:25:14.205Z,83.41
2019-03-02T20:31:18.784Z,83.78
2019-03-02T20:37:23.359Z,84.05
2019-03-02T20:43:28.824Z,83.38
2019-03-02T20:49:33.442Z,84.39
2019-03-02T20:55:38.110Z,84.16
2019-03-02T21:01:42.821Z,83.94
2019-03-02T21:07:47.456Z,83.22
2019-03-02T21:13:52.011Z,84.04
2019-03-02T21:19:56.897Z,83.50
2019-03-02T21:26:01.916Z,83.95
2019-03-02T21:32:06.951Z,84.01
2019-03-02T21:38:11.652Z,84.78
2019-03-02T21:44:16.374Z,84.57
2019-03-02T21:50:40.180Z,84.54
2019-03-02T21:56:45.368Z,85.15
2019-03-02T22:02:50.073Z,86.44
2019-03-02T22:08:54.713Z,88.27
2019-03-02T22:15:00.027Z,89.22
2019-03-02T22:21:04.729Z,89.67
2019-03-02T22:27:09.481Z,89.93
2019-03-02T22:33:14.043Z,87.14
2019-03-02T22:39:19.191Z,88.29
2019-03-02T22:45:23.832Z,88.47
2019-03-02T22:51:29.080Z,89.31
2019-03-02T22:57:33.668Z,89.29
2019-03-02T23:03:36.942Z,89.28
2019-03-02T23:09:41.584Z,88.57
2019-03-02T23:15:46.222Z,88.27
2019-03-02T23:21:50.932Z,88.80
2019-03-02T23:27:55.542Z,90.11
2019-03-02T23:34:01.115Z,90.95
2019-03-02T23:40:10.392Z,92.16
2019-03-02T23:46:15.254Z,93.55
2019-03-02T23:52:19.959Z,92.37
2019-03-02T23:58:24.526Z,93.05
